sensor_id;sensor_type;location;lat;lon;timestamp;P1;durP1;ratioP1;P2;durP2;ratioP2
44832;SDS011;30569;51.252;9.830;2023-03-14T00:02:13;4.07;;;1.40;;
44832;SDS011;30569;51.252;9.830;2023-03-14T00:04:39;5.68;;;1.42;;
44832;SDS011;30569;51.252;9.830;2023-03-14T00:07:04;3.22;;;1.30;;
44832;SDS011;30569;51.252;9.830;2023-03-14T00:09:30;3.05;;;1.20;;
44832;SDS011;30569;51.252;9.830;2023-03-14T00:11:56;3.25;;;1.40;;
44832;SDS011;30569;51.252;9.830;2023-03-14T00:14:22;3.15;;;1.15;;
44832;SDS011;30569;51.252;9.830;2023-03-14T00:16:48;4.65;;;1.30;;
44832;SDS011;30569;51.252;9.830;2023-03-14T00:19:14;4.20;;;1.40;;
44832;SDS011;30569;51.252;9.830;2023-03-14T00:21:40;2.92;;;1.40;;
44832;SDS011;30569;51.252;9.830;2023-03-14T00:24:06;2.80;;;1.20;;
44832;SDS011;30569;51.252;9.830;2023-03-14T00:26:32;4.03;;;1.45;;
44832;SDS011;30569;51.252;9.830;2023-03-14T00:28:58;3.22;;;1.30;;
44832;SDS011;30569;51.252;9.830;2023-03-14T00:31:24;5.00;;;1.30;;
44832;SDS011;30569;51.252;9.830;2023-03-14T00:33:51;3.08;;;1.25;;
44832;SDS011;30569;51.252;9.830;2023-03-14T00:36:18;4.63;;;1.13;;
44832;SDS011;30569;51.252;9.830;2023-03-14T00:38:46;3.38;;;1.45;;
44832;SDS011;30569;51.252;9.830;2023-03-14T00:41:13;4.38;;;1.83;;
44832;SDS011;30569;51.252;9.830;2023-03-14T00:43:43;3.67;;;1.10;;
44832;SDS011;30569;51.252;9.830;2023-03-14T00:46:09;3.85;;;1.58;;
44832;SDS011;30569;51.252;9.830;2023-03-14T00:48:35;2.53;;;1.20;;
44832;SDS011;30569;51.252;9.830;2023-03-14T00:51:02;4.22;;;1.65;;
44832;SDS011;30569;51.252;9.830;2023-03-14T00:53:29;3.85;;;1.50;;
44832;SDS011;30569;51.252;9.830;2023-03-14T00:55:55;4.40;;;1.50;;
44832;SDS011;30569;51.252;9.830;2023-03-14T00:58:20;3.70;;;1.38;;
44832;SDS011;30569;51.252;9.830;2023-03-14T01:00:46;5.88;;;1.40;;
44832;SDS011;30569;51.252;9.830;2023-03-14T01:03:13;5.40;;;1.50;;
44832;SDS011;30569;51.252;9.830;2023-03-14T01:05:39;3.95;;;1.60;;
44832;SDS011;30569;51.252;9.830;2023-03-14T01:08:05;4.38;;;2.38;;
44832;SDS011;30569;51.252;9.830;2023-03-14T01:10:32;3.70;;;1.50;;
44832;SDS011;30569;51.252;9.830;2023-03-14T01:12:58;4.70;;;1.90;;
44832;SDS011;30569;51.252;9.830;2023-03-14T01:15:24;4.45;;;1.50;;
44832;SDS011;30569;51.252;9.830;2023-03-14T01:17:50;3.50;;;1.67;;
44832;SDS011;30569;51.252;9.830;2023-03-14T01:20:16;4.65;;;1.77;;
44832;SDS011;30569;51.252;9.830;2023-03-14T01:22:43;8.45;;;1.63;;
44832;SDS011;30569;51.252;9.830;2023-03-14T01:25:10;3.78;;;1.65;;
44832;SDS011;30569;51.252;9.830;2023-03-14T01:27:37;5.30;;;1.80;;
44832;SDS011;30569;51.252;9.830;2023-03-14T01:30:04;4.72;;;2.00;;
44832;SDS011;30569;51.252;9.830;2023-03-14T01:32:30;4.50;;;2.08;;
44832;SDS011;30569;51.252;9.830;2023-03-14T01:34:56;6.70;;;1.90;;
44832;SDS011;30569;51.252;9.830;2023-03-14T01:37:22;4.50;;;1.90;;
44832;SDS011;30569;51.252;9.830;2023-03-14T01:39:48;5.68;;;1.85;;
44832;SDS011;30569;51.252;9.830;2023-03-14T01:42:14;3.85;;;1.88;;
44832;SDS011;30569;51.252;9.830;2023-03-14T01:45:52;4.15;;;1.67;;
44832;SDS011;30569;51.252;9.830;2023-03-14T01:47:50;4.57;;;1.65;;
44832;SDS011;30569;51.252;9.830;2023-03-14T01:50:17;3.97;;;1.70;;
44832;SDS011;30569;51.252;9.830;2023-03-14T01:52:44;5.53;;;1.85;;
44832;SDS011;30569;51.252;9.830;2023-03-14T01:55:14;5.78;;;2.33;;
44832;SDS011;30569;51.252;9.830;2023-03-14T01:57:46;3.85;;;1.63;;
44832;SDS011;30569;51.252;9.830;2023-03-14T02:00:16;5.50;;;1.98;;
44832;SDS011;30569;51.252;9.830;2023-03-14T02:02:46;6.60;;;2.05;;
44832;SDS011;30569;51.252;9.830;2023-03-14T02:05:24;5.93;;;2.08;;
44832;SDS011;30569;51.252;9.830;2023-03-14T02:07:53;5.10;;;2.20;;
44832;SDS011;30569;51.252;9.830;2023-03-14T02:10:33;7.53;;;2.05;;
44832;SDS011;30569;51.252;9.830;2023-03-14T02:13:03;6.10;;;1.80;;
44832;SDS011;30569;51.252;9.830;2023-03-14T02:15:30;4.57;;;1.90;;
44832;SDS011;30569;51.252;9.830;2023-03-14T02:17:56;5.22;;;1.90;;
44832;SDS011;30569;51.252;9.830;2023-03-14T02:20:28;5.63;;;2.00;;
44832;SDS011;30569;51.252;9.830;2023-03-14T02:23:09;5.88;;;2.13;;
44832;SDS011;30569;51.252;9.830;2023-03-14T02:25:43;6.40;;;2.17;;
44832;SDS011;30569;51.252;9.830;2023-03-14T02:28:16;9.68;;;2.15;;
44832;SDS011;30569;51.252;9.830;2023-03-14T02:30:41;7.15;;;2.20;;
44832;SDS011;30569;51.252;9.830;2023-03-14T02:33:12;8.95;;;2.35;;
44832;SDS011;30569;51.252;9.830;2023-03-14T02:35:49;4.88;;;2.08;;
44832;SDS011;30569;51.252;9.830;2023-03-14T02:38:22;7.70;;;2.03;;
44832;SDS011;30569;51.252;9.830;2023-03-14T02:40:50;7.40;;;2.15;;
44832;SDS011;30569;51.252;9.830;2023-03-14T02:43:16;5.85;;;2.20;;
44832;SDS011;30569;51.252;9.830;2023-03-14T02:45:48;6.47;;;2.10;;
44832;SDS011;30569;51.252;9.830;2023-03-14T02:48:16;6.40;;;1.88;;
44832;SDS011;30569;51.252;9.830;2023-03-14T02:50:45;6.15;;;2.33;;
44832;SDS011;30569;51.252;9.830;2023-03-14T02:53:14;5.63;;;2.03;;
44832;SDS011;30569;51.252;9.830;2023-03-14T02:55:49;4.35;;;1.67;;
44832;SDS011;30569;51.252;9.830;2023-03-14T02:58:15;7.60;;;2.40;;
44832;SDS011;30569;51.252;9.830;2023-03-14T03:00:41;6.47;;;2.00;;
44832;SDS011;30569;51.252;9.830;2023-03-14T03:03:07;5.93;;;2.10;;
44832;SDS011;30569;51.252;9.830;2023-03-14T03:05:33;7.95;;;2.42;;
44832;SDS011;30569;51.252;9.830;2023-03-14T03:07:59;8.90;;;2.08;;
44832;SDS011;30569;51.252;9.830;2023-03-14T03:10:26;6.00;;;2.15;;
44832;SDS011;30569;51.252;9.830;2023-03-14T03:12:52;6.25;;;1.92;;
44832;SDS011;30569;51.252;9.830;2023-03-14T03:15:18;8.30;;;2.35;;
44832;SDS011;30569;51.252;9.830;2023-03-14T03:17:44;6.35;;;2.20;;
44832;SDS011;30569;51.252;9.830;2023-03-14T03:20:10;7.32;;;2.35;;
44832;SDS011;30569;51.252;9.830;2023-03-14T03:22:37;8.32;;;2.15;;
44832;SDS011;30569;51.252;9.830;2023-03-14T03:25:04;6.25;;;2.08;;
44832;SDS011;30569;51.252;9.830;2023-03-14T03:27:31;6.80;;;1.80;;
44832;SDS011;30569;51.252;9.830;2023-03-14T03:29:57;5.15;;;1.70;;
44832;SDS011;30569;51.252;9.830;2023-03-14T03:32:23;7.45;;;2.10;;
44832;SDS011;30569;51.252;9.830;2023-03-14T03:34:49;6.45;;;1.80;;
44832;SDS011;30569;51.252;9.830;2023-03-14T03:37:15;5.72;;;1.75;;
44832;SDS011;30569;51.252;9.830;2023-03-14T03:39:40;7.35;;;2.20;;
44832;SDS011;30569;51.252;9.830;2023-03-14T03:42:06;7.60;;;2.10;;
44832;SDS011;30569;51.252;9.830;2023-03-14T03:44:31;12.15;;;2.50;;
44832;SDS011;30569;51.252;9.830;2023-03-14T03:46:57;7.15;;;2.30;;
44832;SDS011;30569;51.252;9.830;2023-03-14T03:49:23;8.48;;;1.90;;
44832;SDS011;30569;51.252;9.830;2023-03-14T03:51:49;8.13;;;2.20;;
44832;SDS011;30569;51.252;9.830;2023-03-14T03:54:15;8.88;;;2.83;;
44832;SDS011;30569;51.252;9.830;2023-03-14T03:56:40;7.60;;;1.95;;
44832;SDS011;30569;51.252;9.830;2023-03-14T03:59:06;6.55;;;1.70;;
44832;SDS011;30569;51.252;9.830;2023-03-14T04:01:31;4.50;;;1.30;;
44832;SDS011;30569;51.252;9.830;2023-03-14T04:03:57;7.90;;;1.90;;
44832;SDS011;30569;51.252;9.830;2023-03-14T04:06:23;7.78;;;2.50;;
44832;SDS011;30569;51.252;9.830;2023-03-14T04:08:49;4.38;;;1.58;;
44832;SDS011;30569;51.252;9.830;2023-03-14T04:11:15;8.27;;;2.10;;
44832;SDS011;30569;51.252;9.830;2023-03-14T04:13:41;8.05;;;1.90;;
44832;SDS011;30569;51.252;9.830;2023-03-14T04:16:17;8.35;;;2.28;;
44832;SDS011;30569;51.252;9.830;2023-03-14T04:18:47;5.70;;;2.00;;
44832;SDS011;30569;51.252;9.830;2023-03-14T04:21:13;7.05;;;1.70;;
44832;SDS011;30569;51.252;9.830;2023-03-14T04:23:39;4.55;;;1.48;;
44832;SDS011;30569;51.252;9.830;2023-03-14T04:26:05;10.55;;;1.92;;
44832;SDS011;30569;51.252;9.830;2023-03-14T04:28:31;8.90;;;1.80;;
44832;SDS011;30569;51.252;9.830;2023-03-14T04:30:58;7.82;;;2.10;;
44832;SDS011;30569;51.252;9.830;2023-03-14T04:33:24;3.05;;;1.40;;
44832;SDS011;30569;51.252;9.830;2023-03-14T04:35:52;7.40;;;2.15;;
44832;SDS011;30569;51.252;9.830;2023-03-14T04:38:19;7.47;;;1.63;;
44832;SDS011;30569;51.252;9.830;2023-03-14T04:40:44;4.00;;;1.50;;
44832;SDS011;30569;51.252;9.830;2023-03-14T04:43:10;8.55;;;1.75;;
44832;SDS011;30569;51.252;9.830;2023-03-14T04:45:37;5.85;;;2.38;;
44832;SDS011;30569;51.252;9.830;2023-03-14T04:48:06;5.28;;;1.80;;
44832;SDS011;30569;51.252;9.830;2023-03-14T04:50:32;6.43;;;1.90;;
44832;SDS011;30569;51.252;9.830;2023-03-14T04:52:58;7.32;;;1.80;;
44832;SDS011;30569;51.252;9.830;2023-03-14T04:55:24;4.95;;;1.67;;
44832;SDS011;30569;51.252;9.830;2023-03-14T04:57:49;8.10;;;2.28;;
44832;SDS011;30569;51.252;9.830;2023-03-14T05:00:15;5.70;;;1.90;;
44832;SDS011;30569;51.252;9.830;2023-03-14T05:02:44;5.60;;;1.67;;
44832;SDS011;30569;51.252;9.830;2023-03-14T05:05:10;6.43;;;2.13;;
44832;SDS011;30569;51.252;9.830;2023-03-14T05:07:36;10.55;;;2.05;;
44832;SDS011;30569;51.252;9.830;2023-03-14T05:10:02;4.28;;;1.90;;
44832;SDS011;30569;51.252;9.830;2023-03-14T05:12:28;5.40;;;1.60;;
44832;SDS011;30569;51.252;9.830;2023-03-14T05:14:53;6.15;;;1.50;;
44832;SDS011;30569;51.252;9.830;2023-03-14T05:17:19;7.97;;;1.85;;
44832;SDS011;30569;51.252;9.830;2023-03-14T05:19:45;8.57;;;1.65;;
44832;SDS011;30569;51.252;9.830;2023-03-14T05:22:11;6.65;;;2.22;;
44832;SDS011;30569;51.252;9.830;2023-03-14T05:24:38;8.20;;;1.80;;
44832;SDS011;30569;51.252;9.830;2023-03-14T05:27:04;6.40;;;2.13;;
44832;SDS011;30569;51.252;9.830;2023-03-14T05:29:30;7.18;;;1.70;;
44832;SDS011;30569;51.252;9.830;2023-03-14T05:31:56;7.00;;;1.80;;
44832;SDS011;30569;51.252;9.830;2023-03-14T05:34:22;5.35;;;1.70;;
44832;SDS011;30569;51.252;9.830;2023-03-14T05:36:48;8.43;;;1.92;;
44832;SDS011;30569;51.252;9.830;2023-03-14T05:39:14;6.18;;;2.00;;
44832;SDS011;30569;51.252;9.830;2023-03-14T05:41:40;6.45;;;1.70;;
44832;SDS011;30569;51.252;9.830;2023-03-14T05:44:05;6.78;;;2.03;;
44832;SDS011;30569;51.252;9.830;2023-03-14T05:46:31;5.38;;;1.70;;
44832;SDS011;30569;51.252;9.830;2023-03-14T05:48:58;4.00;;;1.50;;
44832;SDS011;30569;51.252;9.830;2023-03-14T05:51:24;5.40;;;2.10;;
44832;SDS011;30569;51.252;9.830;2023-03-14T05:53:50;4.95;;;1.80;;
44832;SDS011;30569;51.252;9.830;2023-03-14T05:56:15;7.18;;;1.75;;
44832;SDS011;30569;51.252;9.830;2023-03-14T05:58:41;6.13;;;1.45;;
44832;SDS011;30569;51.252;9.830;2023-03-14T06:01:08;6.30;;;1.60;;
44832;SDS011;30569;51.252;9.830;2023-03-14T06:03:33;5.75;;;1.30;;
44832;SDS011;30569;51.252;9.830;2023-03-14T06:06:00;4.85;;;1.75;;
44832;SDS011;30569;51.252;9.830;2023-03-14T06:08:26;6.45;;;1.75;;
44832;SDS011;30569;51.252;9.830;2023-03-14T06:10:53;6.38;;;1.67;;
44832;SDS011;30569;51.252;9.830;2023-03-14T06:13:18;5.60;;;1.70;;
44832;SDS011;30569;51.252;9.830;2023-03-14T06:15:44;9.48;;;1.73;;
44832;SDS011;30569;51.252;9.830;2023-03-14T06:18:10;4.95;;;1.70;;
44832;SDS011;30569;51.252;9.830;2023-03-14T06:20:37;7.43;;;1.70;;
44832;SDS011;30569;51.252;9.830;2023-03-14T06:23:06;4.70;;;1.50;;
44832;SDS011;30569;51.252;9.830;2023-03-14T06:25:33;7.80;;;2.47;;
44832;SDS011;30569;51.252;9.830;2023-03-14T06:27:59;13.75;;;5.93;;
44832;SDS011;30569;51.252;9.830;2023-03-14T06:30:25;10.63;;;2.28;;
44832;SDS011;30569;51.252;9.830;2023-03-14T06:32:51;7.25;;;2.10;;
44832;SDS011;30569;51.252;9.830;2023-03-14T06:35:17;7.40;;;2.72;;
44832;SDS011;30569;51.252;9.830;2023-03-14T06:37:42;6.53;;;2.17;;
44832;SDS011;30569;51.252;9.830;2023-03-14T06:40:09;8.40;;;2.08;;
44832;SDS011;30569;51.252;9.830;2023-03-14T06:42:35;6.75;;;1.95;;
44832;SDS011;30569;51.252;9.830;2023-03-14T06:45:01;9.85;;;3.72;;
44832;SDS011;30569;51.252;9.830;2023-03-14T06:47:27;10.80;;;4.20;;
44832;SDS011;30569;51.252;9.830;2023-03-14T06:49:53;8.18;;;3.05;;
44832;SDS011;30569;51.252;9.830;2023-03-14T06:52:19;9.70;;;4.82;;
44832;SDS011;30569;51.252;9.830;2023-03-14T06:54:44;6.93;;;2.25;;
44832;SDS011;30569;51.252;9.830;2023-03-14T06:57:10;7.15;;;3.63;;
44832;SDS011;30569;51.252;9.830;2023-03-14T06:59:36;4.97;;;1.90;;
44832;SDS011;30569;51.252;9.830;2023-03-14T07:02:02;5.60;;;2.38;;
44832;SDS011;30569;51.252;9.830;2023-03-14T07:04:28;5.97;;;1.65;;
44832;SDS011;30569;51.252;9.830;2023-03-14T07:06:54;5.95;;;1.73;;
44832;SDS011;30569;51.252;9.830;2023-03-14T07:09:20;2.83;;;1.15;;
44832;SDS011;30569;51.252;9.830;2023-03-14T07:11:46;6.28;;;1.83;;
44832;SDS011;30569;51.252;9.830;2023-03-14T07:14:12;5.32;;;1.35;;
44832;SDS011;30569;51.252;9.830;2023-03-14T07:16:37;5.45;;;1.60;;
44832;SDS011;30569;51.252;9.830;2023-03-14T07:19:03;9.38;;;1.65;;
44832;SDS011;30569;51.252;9.830;2023-03-14T07:21:28;5.75;;;1.52;;
44832;SDS011;30569;51.252;9.830;2023-03-14T07:23:54;5.18;;;1.50;;
44832;SDS011;30569;51.252;9.830;2023-03-14T07:26:20;3.97;;;1.30;;
44832;SDS011;30569;51.252;9.830;2023-03-14T07:28:46;4.95;;;1.67;;
44832;SDS011;30569;51.252;9.830;2023-03-14T07:31:11;3.65;;;1.30;;
44832;SDS011;30569;51.252;9.830;2023-03-14T07:33:37;3.55;;;1.52;;
44832;SDS011;30569;51.252;9.830;2023-03-14T07:36:03;6.63;;;1.42;;
44832;SDS011;30569;51.252;9.830;2023-03-14T07:38:29;4.28;;;1.27;;
44832;SDS011;30569;51.252;9.830;2023-03-14T07:40:58;4.05;;;1.33;;
44832;SDS011;30569;51.252;9.830;2023-03-14T07:43:25;4.20;;;1.58;;
44832;SDS011;30569;51.252;9.830;2023-03-14T07:45:50;7.50;;;1.50;;
44832;SDS011;30569;51.252;9.830;2023-03-14T07:48:16;3.95;;;1.40;;
44832;SDS011;30569;51.252;9.830;2023-03-14T07:50:42;3.35;;;1.40;;
44832;SDS011;30569;51.252;9.830;2023-03-14T07:53:07;4.75;;;1.50;;
44832;SDS011;30569;51.252;9.830;2023-03-14T07:55:33;4.95;;;1.58;;
44832;SDS011;30569;51.252;9.830;2023-03-14T07:57:58;3.83;;;1.35;;
44832;SDS011;30569;51.252;9.830;2023-03-14T08:00:24;4.68;;;1.50;;
44832;SDS011;30569;51.252;9.830;2023-03-14T08:02:50;3.60;;;1.50;;
44832;SDS011;30569;51.252;9.830;2023-03-14T08:05:15;5.93;;;1.40;;
44832;SDS011;30569;51.252;9.830;2023-03-14T08:07:41;3.15;;;1.30;;
44832;SDS011;30569;51.252;9.830;2023-03-14T08:10:07;2.28;;;1.10;;
44832;SDS011;30569;51.252;9.830;2023-03-14T08:12:34;4.95;;;1.83;;
44832;SDS011;30569;51.252;9.830;2023-03-14T08:14:59;4.40;;;1.20;;
44832;SDS011;30569;51.252;9.830;2023-03-14T08:17:25;3.63;;;1.50;;
44832;SDS011;30569;51.252;9.830;2023-03-14T08:19:51;4.45;;;1.40;;
44832;SDS011;30569;51.252;9.830;2023-03-14T08:22:16;5.88;;;1.33;;
44832;SDS011;30569;51.252;9.830;2023-03-14T08:24:42;3.60;;;1.20;;
44832;SDS011;30569;51.252;9.830;2023-03-14T08:27:07;5.68;;;1.25;;
44832;SDS011;30569;51.252;9.830;2023-03-14T08:29:33;4.22;;;1.30;;
44832;SDS011;30569;51.252;9.830;2023-03-14T08:31:58;3.10;;;1.20;;
44832;SDS011;30569;51.252;9.830;2023-03-14T08:34:24;3.28;;;1.13;;
44832;SDS011;30569;51.252;9.830;2023-03-14T08:36:50;3.00;;;1.17;;
44832;SDS011;30569;51.252;9.830;2023-03-14T08:39:16;4.18;;;1.15;;
44832;SDS011;30569;51.252;9.830;2023-03-14T08:41:42;4.10;;;1.25;;
44832;SDS011;30569;51.252;9.830;2023-03-14T08:44:09;4.72;;;2.05;;
44832;SDS011;30569;51.252;9.830;2023-03-14T08:46:36;4.47;;;1.30;;
44832;SDS011;30569;51.252;9.830;2023-03-14T08:49:02;2.63;;;1.13;;
44832;SDS011;30569;51.252;9.830;2023-03-14T08:51:28;4.32;;;1.98;;
44832;SDS011;30569;51.252;9.830;2023-03-14T08:53:54;2.42;;;1.13;;
44832;SDS011;30569;51.252;9.830;2023-03-14T08:56:20;5.85;;;1.75;;
44832;SDS011;30569;51.252;9.830;2023-03-14T08:58:46;4.10;;;1.70;;
44832;SDS011;30569;51.252;9.830;2023-03-14T09:01:11;5.72;;;1.92;;
44832;SDS011;30569;51.252;9.830;2023-03-14T09:03:37;5.07;;;1.85;;
44832;SDS011;30569;51.252;9.830;2023-03-14T09:06:04;3.90;;;1.70;;
44832;SDS011;30569;51.252;9.830;2023-03-14T09:08:33;4.22;;;1.20;;
44832;SDS011;30569;51.252;9.830;2023-03-14T09:10:59;3.33;;;1.20;;
44832;SDS011;30569;51.252;9.830;2023-03-14T09:13:25;4.25;;;1.60;;
44832;SDS011;30569;51.252;9.830;2023-03-14T09:15:51;3.22;;;1.13;;
44832;SDS011;30569;51.252;9.830;2023-03-14T09:18:18;4.03;;;1.60;;
44832;SDS011;30569;51.252;9.830;2023-03-14T09:20:43;5.57;;;1.10;;
44832;SDS011;30569;51.252;9.830;2023-03-14T09:23:09;4.60;;;1.55;;
44832;SDS011;30569;51.252;9.830;2023-03-14T09:25:34;3.58;;;1.08;;
44832;SDS011;30569;51.252;9.830;2023-03-14T09:28:00;4.30;;;1.20;;
44832;SDS011;30569;51.252;9.830;2023-03-14T09:30:26;4.13;;;1.27;;
44832;SDS011;30569;51.252;9.830;2023-03-14T09:32:51;3.42;;;0.90;;
44832;SDS011;30569;51.252;9.830;2023-03-14T09:35:17;3.10;;;1.40;;
44832;SDS011;30569;51.252;9.830;2023-03-14T09:37:42;3.78;;;1.55;;
44832;SDS011;30569;51.252;9.830;2023-03-14T09:40:11;3.83;;;1.10;;
44832;SDS011;30569;51.252;9.830;2023-03-14T09:42:39;3.47;;;1.20;;
44832;SDS011;30569;51.252;9.830;2023-03-14T09:45:06;2.65;;;1.10;;
44832;SDS011;30569;51.252;9.830;2023-03-14T09:47:38;4.43;;;1.30;;
44832;SDS011;30569;51.252;9.830;2023-03-14T09:50:05;4.22;;;1.13;;
44832;SDS011;30569;51.252;9.830;2023-03-14T09:52:36;2.97;;;1.15;;
44832;SDS011;30569;51.252;9.830;2023-03-14T09:55:06;3.83;;;1.10;;
44832;SDS011;30569;51.252;9.830;2023-03-14T09:57:37;3.00;;;1.10;;
44832;SDS011;30569;51.252;9.830;2023-03-14T10:00:26;3.22;;;1.30;;
44832;SDS011;30569;51.252;9.830;2023-03-14T10:02:54;3.25;;;1.10;;
44832;SDS011;30569;51.252;9.830;2023-03-14T10:05:23;4.63;;;1.42;;
44832;SDS011;30569;51.252;9.830;2023-03-14T10:07:50;2.90;;;1.15;;
44832;SDS011;30569;51.252;9.830;2023-03-14T10:10:22;4.18;;;1.13;;
44832;SDS011;30569;51.252;9.830;2023-03-14T10:13:10;5.03;;;1.20;;
44832;SDS011;30569;51.252;9.830;2023-03-14T10:18:31;2.25;;;1.00;;
44832;SDS011;30569;51.252;9.830;2023-03-14T10:21:03;2.50;;;1.00;;
44832;SDS011;30569;51.252;9.830;2023-03-14T10:23:52;4.45;;;1.17;;
44832;SDS011;30569;51.252;9.830;2023-03-14T10:26:19;3.90;;;1.25;;
44832;SDS011;30569;51.252;9.830;2023-03-14T10:28:52;2.22;;;0.98;;
44832;SDS011;30569;51.252;9.830;2023-03-14T10:31:19;1.85;;;1.00;;
44832;SDS011;30569;51.252;9.830;2023-03-14T10:34:00;1.75;;;0.90;;
44832;SDS011;30569;51.252;9.830;2023-03-14T10:36:29;2.53;;;1.00;;
44832;SDS011;30569;51.252;9.830;2023-03-14T10:38:58;2.67;;;1.15;;
44832;SDS011;30569;51.252;9.830;2023-03-14T10:41:48;3.05;;;1.15;;
44832;SDS011;30569;51.252;9.830;2023-03-14T10:44:19;2.88;;;1.17;;
44832;SDS011;30569;51.252;9.830;2023-03-14T10:46:54;2.17;;;1.00;;
44832;SDS011;30569;51.252;9.830;2023-03-14T10:49:26;4.63;;;0.95;;
44832;SDS011;30569;51.252;9.830;2023-03-14T10:52:03;1.80;;;0.90;;
44832;SDS011;30569;51.252;9.830;2023-03-14T10:54:57;2.13;;;1.10;;
44832;SDS011;30569;51.252;9.830;2023-03-14T10:57:26;2.70;;;1.20;;
44832;SDS011;30569;51.252;9.830;2023-03-14T10:59:53;1.83;;;0.90;;
44832;SDS011;30569;51.252;9.830;2023-03-14T11:02:25;2.45;;;1.00;;
44832;SDS011;30569;51.252;9.830;2023-03-14T11:05:18;3.33;;;1.10;;
44832;SDS011;30569;51.252;9.830;2023-03-14T11:07:46;3.33;;;1.20;;
44832;SDS011;30569;51.252;9.830;2023-03-14T11:13:15;2.85;;;1.00;;
44832;SDS011;30569;51.252;9.830;2023-03-14T11:21:55;3.90;;;1.02;;
44832;SDS011;30569;51.252;9.830;2023-03-14T11:29:41;4.63;;;1.05;;
44832;SDS011;30569;51.252;9.830;2023-03-14T11:35:17;5.78;;;2.75;;
44832;SDS011;30569;51.252;9.830;2023-03-14T11:37:56;2.90;;;1.10;;
44832;SDS011;30569;51.252;9.830;2023-03-14T11:40:37;4.38;;;1.10;;
44832;SDS011;30569;51.252;9.830;2023-03-14T11:43:12;2.22;;;0.90;;
44832;SDS011;30569;51.252;9.830;2023-03-14T11:46:01;4.93;;;1.10;;
44832;SDS011;30569;51.252;9.830;2023-03-14T11:48:35;2.88;;;1.10;;
44832;SDS011;30569;51.252;9.830;2023-03-14T11:51:22;3.08;;;1.00;;
44832;SDS011;30569;51.252;9.830;2023-03-14T11:53:55;2.97;;;1.00;;
44832;SDS011;30569;51.252;9.830;2023-03-14T11:56:50;4.35;;;1.42;;
44832;SDS011;30569;51.252;9.830;2023-03-14T11:59:24;2.33;;;1.10;;
44832;SDS011;30569;51.252;9.830;2023-03-14T12:02:03;3.55;;;1.13;;
44832;SDS011;30569;51.252;9.830;2023-03-14T12:04:49;2.70;;;0.90;;
44832;SDS011;30569;51.252;9.830;2023-03-14T12:07:19;2.20;;;0.90;;
44832;SDS011;30569;51.252;9.830;2023-03-14T12:09:48;5.53;;;2.45;;
44832;SDS011;30569;51.252;9.830;2023-03-14T12:12:19;4.00;;;1.50;;
44832;SDS011;30569;51.252;9.830;2023-03-14T12:14:55;4.47;;;1.30;;
44832;SDS011;30569;51.252;9.830;2023-03-14T12:17:39;2.50;;;1.10;;
44832;SDS011;30569;51.252;9.830;2023-03-14T12:22:43;3.70;;;1.40;;
44832;SDS011;30569;51.252;9.830;2023-03-14T12:25:26;3.45;;;1.40;;
44832;SDS011;30569;51.252;9.830;2023-03-14T12:33:10;2.78;;;1.15;;
44832;SDS011;30569;51.252;9.830;2023-03-14T12:35:45;3.42;;;1.20;;
44832;SDS011;30569;51.252;9.830;2023-03-14T12:38:29;3.47;;;1.00;;
44832;SDS011;30569;51.252;9.830;2023-03-14T12:41:20;2.03;;;0.98;;
44832;SDS011;30569;51.252;9.830;2023-03-14T12:49:40;3.35;;;1.15;;
44832;SDS011;30569;51.252;9.830;2023-03-14T12:52:40;5.13;;;1.20;;
44832;SDS011;30569;51.252;9.830;2023-03-14T13:00:58;2.03;;;0.90;;
44832;SDS011;30569;51.252;9.830;2023-03-14T13:03:26;3.60;;;1.10;;
44832;SDS011;30569;51.252;9.830;2023-03-14T13:06:04;2.67;;;1.20;;
44832;SDS011;30569;51.252;9.830;2023-03-14T13:08:34;3.25;;;1.30;;
44832;SDS011;30569;51.252;9.830;2023-03-14T13:11:23;2.03;;;1.00;;
44832;SDS011;30569;51.252;9.830;2023-03-14T13:13:52;2.20;;;1.08;;
44832;SDS011;30569;51.252;9.830;2023-03-14T13:16:22;2.88;;;1.30;;
44832;SDS011;30569;51.252;9.830;2023-03-14T13:18:49;3.67;;;1.20;;
44832;SDS011;30569;51.252;9.830;2023-03-14T13:21:34;3.00;;;0.95;;
44832;SDS011;30569;51.252;9.830;2023-03-14T13:24:05;1.75;;;0.95;;
44832;SDS011;30569;51.252;9.830;2023-03-14T13:26:43;4.55;;;1.40;;
44832;SDS011;30569;51.252;9.830;2023-03-14T13:31:46;2.85;;;1.20;;
44832;SDS011;30569;51.252;9.830;2023-03-14T13:34:13;3.65;;;1.50;;
44832;SDS011;30569;51.252;9.830;2023-03-14T13:36:39;5.15;;;1.30;;
44832;SDS011;30569;51.252;9.830;2023-03-14T13:39:19;3.00;;;1.30;;
44832;SDS011;30569;51.252;9.830;2023-03-14T13:41:49;3.70;;;1.60;;
44832;SDS011;30569;51.252;9.830;2023-03-14T13:44:16;3.17;;;1.40;;
44832;SDS011;30569;51.252;9.830;2023-03-14T13:47:03;4.43;;;2.17;;
44832;SDS011;30569;51.252;9.830;2023-03-14T13:49:33;4.72;;;2.72;;
44832;SDS011;30569;51.252;9.830;2023-03-14T13:52:00;3.70;;;1.65;;
44832;SDS011;30569;51.252;9.830;2023-03-14T13:54:27;5.28;;;2.50;;
44832;SDS011;30569;51.252;9.830;2023-03-14T13:57:03;4.68;;;2.92;;
44832;SDS011;30569;51.252;9.830;2023-03-14T13:59:31;3.60;;;1.97;;
44832;SDS011;30569;51.252;9.830;2023-03-14T14:01:59;5.00;;;3.10;;
44832;SDS011;30569;51.252;9.830;2023-03-14T14:04:29;3.70;;;2.30;;
44832;SDS011;30569;51.252;9.830;2023-03-14T14:07:00;2.30;;;1.17;;
44832;SDS011;30569;51.252;9.830;2023-03-14T14:09:50;3.17;;;1.60;;
44832;SDS011;30569;51.252;9.830;2023-03-14T14:12:28;1.50;;;0.90;;
44832;SDS011;30569;51.252;9.830;2023-03-14T14:17:31;3.60;;;1.97;;
44832;SDS011;30569;51.252;9.830;2023-03-14T14:20:03;3.27;;;1.20;;
44832;SDS011;30569;51.252;9.830;2023-03-14T14:22:32;3.70;;;1.37;;
44832;SDS011;30569;51.252;9.830;2023-03-14T14:24:58;2.63;;;1.17;;
44832;SDS011;30569;51.252;9.830;2023-03-14T14:27:28;4.17;;;1.30;;
44832;SDS011;30569;51.252;9.830;2023-03-14T14:30:05;3.10;;;1.10;;
44832;SDS011;30569;51.252;9.830;2023-03-14T14:32:43;7.07;;;4.67;;
44832;SDS011;30569;51.252;9.830;2023-03-14T14:35:10;9.00;;;5.17;;
44832;SDS011;30569;51.252;9.830;2023-03-14T14:37:47;2.90;;;1.20;;
44832;SDS011;30569;51.252;9.830;2023-03-14T14:40:21;4.37;;;1.37;;
44832;SDS011;30569;51.252;9.830;2023-03-14T14:42:51;3.97;;;1.77;;
44832;SDS011;30569;51.252;9.830;2023-03-14T14:45:18;11.90;;;4.53;;
44832;SDS011;30569;51.252;9.830;2023-03-14T14:47:48;5.90;;;1.57;;
44832;SDS011;30569;51.252;9.830;2023-03-14T14:50:31;4.77;;;1.60;;
44832;SDS011;30569;51.252;9.830;2023-03-14T14:52:58;3.17;;;1.27;;
44832;SDS011;30569;51.252;9.830;2023-03-14T14:55:44;7.97;;;3.97;;
44832;SDS011;30569;51.252;9.830;2023-03-14T14:58:18;9.43;;;3.50;;
44832;SDS011;30569;51.252;9.830;2023-03-14T15:00:50;5.67;;;1.60;;
44832;SDS011;30569;51.252;9.830;2023-03-14T15:03:35;7.50;;;1.77;;
44832;SDS011;30569;51.252;9.830;2023-03-14T15:06:01;5.97;;;2.00;;
44832;SDS011;30569;51.252;9.830;2023-03-14T15:08:27;7.87;;;2.23;;
44832;SDS011;30569;51.252;9.830;2023-03-14T15:10:54;11.63;;;2.10;;
44832;SDS011;30569;51.252;9.830;2023-03-14T15:13:21;6.07;;;2.60;;
44832;SDS011;30569;51.252;9.830;2023-03-14T15:15:47;14.57;;;5.70;;
44832;SDS011;30569;51.252;9.830;2023-03-14T15:18:20;8.02;;;3.10;;
44832;SDS011;30569;51.252;9.830;2023-03-14T15:20:47;9.47;;;2.10;;
44832;SDS011;30569;51.252;9.830;2023-03-14T15:23:13;9.17;;;2.77;;
44832;SDS011;30569;51.252;9.830;2023-03-14T15:25:41;11.03;;;3.87;;
44832;SDS011;30569;51.252;9.830;2023-03-14T15:28:20;9.87;;;3.57;;
44832;SDS011;30569;51.252;9.830;2023-03-14T15:30:47;13.83;;;3.10;;
44832;SDS011;30569;51.252;9.830;2023-03-14T15:33:14;7.67;;;2.70;;
44832;SDS011;30569;51.252;9.830;2023-03-14T15:35:40;8.07;;;3.40;;
44832;SDS011;30569;51.252;9.830;2023-03-14T15:38:10;12.37;;;5.77;;
44832;SDS011;30569;51.252;9.830;2023-03-14T15:40:37;12.97;;;4.83;;
44832;SDS011;30569;51.252;9.830;2023-03-14T15:43:03;11.47;;;5.10;;
44832;SDS011;30569;51.252;9.830;2023-03-14T15:45:29;10.40;;;3.43;;